^^
Grace C. Lehan Memorial Weather Station Historical Data
Daily Summary for March 25, 2021 Units:  Metric    English   Both
Daily Weekly Monthly Yearly
  High: Low: Average:
Temperature: 35.1 °C 20.1 °C 27.2 °C
Dew Point: 23.7 °C 15.8 °C 21.1 °C
Humidity: 95% 32.2% 72%
Wind Speed: 0.6km/h 0km/h 0km/h
Wind Gust: 6.4km/h - -
Wind- - WSW
Pressure: 1018.5 hPa 1015.5 hPa -
Precipitation: 0 mm    
 
 
Tabular Data for March 25, 2021
Time Temperature Dew Point Pressure Wind Wind Speed Wind Gust Humidity Rainfall Rate (Hourly) solar
00:00 23.4 °C 21.6 °C 1015.5 hPa Calm   1.6 km/h 89% 0 mm 0 W/m2
00:09 23.4 °C 21.4 °C 1015.8 hPa Calm   3.2 km/h 89% 0 mm 0 W/m2
00:14 23.3 °C 21.4 °C 1015.8 hPa Calm   3.2 km/h 89% 0 mm 0 W/m2
00:19 23.3 °C 21.4 °C 1015.5 hPa Calm   3.2 km/h 89% 0 mm 0 W/m2
00:24 23.3 °C 21.4 °C 1015.5 hPa Calm   3.2 km/h 89% 0 mm 0 W/m2
00:29 23.3 °C 21.3 °C 1015.8 hPa Calm   3.2 km/h 88.6% 0 mm 0 W/m2
00:34 23.3 °C 21.2 °C 1015.8 hPa Calm   3.2 km/h 88% 0 mm 0 W/m2
00:39 23.3 °C 21.2 °C 1015.5 hPa Calm     88% 0 mm 0 W/m2
00:44 23.3 °C 21.2 °C 1015.5 hPa Calm     88% 0 mm 0 W/m2
00:49 23.2 °C 21.1 °C 1015.5 hPa Calm     88% 0 mm 0 W/m2
00:54 23.2 °C 21.3 °C 1015.8 hPa Calm     88.9% 0 mm 0 W/m2
00:59 23.1 °C 21.2 °C 1015.8 hPa Calm     89% 0 mm 0 W/m2
01:04 23 °C 21.1 °C 1015.5 hPa Calm     89% 0 mm 0 W/m2
01:09 22.9 °C 21 °C 1015.5 hPa Calm     89% 0 mm 0 W/m2
01:14 22.8 °C 20.9 °C 1015.8 hPa Calm     89% 0 mm 0 W/m2
01:19 22.8 °C 20.9 °C 1015.5 hPa Calm     89% 0 mm 0 W/m2
01:24 22.7 °C 20.8 °C 1015.8 hPa Calm     89% 0 mm 0 W/m2
01:29 22.7 °C 20.8 °C 1015.8 hPa Calm     89% 0 mm 0 W/m2
01:34 22.6 °C 20.7 °C 1015.8 hPa Calm     89% 0 mm 0 W/m2
01:39 22.6 °C 20.7 °C 1015.8 hPa Calm   1.6 km/h 89% 0 mm 0 W/m2
01:44 22.5 °C 20.6 °C 1015.5 hPa Calm   1.6 km/h 89% 0 mm 0 W/m2
01:49 22.5 °C 20.6 °C 1015.8 hPa Calm   1.6 km/h 89% 0 mm 0 W/m2
01:54 22.4 °C 20.7 °C 1015.8 hPa Calm   1.6 km/h 89.8% 0 mm 0 W/m2
01:59 22.4 °C 20.7 °C 1015.8 hPa Calm   1.6 km/h 90% 0 mm 0 W/m2
02:04 22.3 °C 20.6 °C 1015.8 hPa Calm   1.6 km/h 90% 0 mm 0 W/m2
02:09 22.3 °C 20.6 °C 1015.8 hPa Calm     90% 0 mm 0 W/m2
02:14 22.2 °C 20.5 °C 1015.8 hPa Calm     90% 0 mm 0 W/m2
02:19 22.2 °C 20.4 °C 1015.5 hPa WNW 0.2 km/h 3.2 km/h 90% 0 mm 0 W/m2
02:24 22.1 °C 20.4 °C 1015.8 hPa Calm   3.2 km/h 90% 0 mm 0 W/m2
02:29 22 °C 20.3 °C 1015.8 hPa Calm   3.2 km/h 90% 0 mm 0 W/m2
02:34 22 °C 20.3 °C 1015.8 hPa Calm   3.2 km/h 90.2% 0 mm 0 W/m2
02:39 21.9 °C 20.4 °C 1015.8 hPa Calm     90.8% 0 mm 0 W/m2
02:44 21.9 °C 20.3 °C 1015.8 hPa Calm     91% 0 mm 0 W/m2
02:49 21.9 °C 20.3 °C 1015.8 hPa Calm     91% 0 mm 0 W/m2
02:54 21.8 °C 20.3 °C 1015.8 hPa Calm     91% 0 mm 0 W/m2
02:59 21.8 °C 20.2 °C 1015.8 hPa Calm     91% 0 mm 0 W/m2
03:04 21.8 °C 20.2 °C 1015.8 hPa Calm     90.7% 0 mm 0 W/m2
03:09 21.7 °C 20.2 °C 1015.8 hPa Calm     91% 0 mm 0 W/m2
03:14 21.7 °C 20.2 °C 1015.8 hPa Calm     91% 0 mm 0 W/m2
03:19 21.7 °C 20 °C 1015.8 hPa Calm     90.5% 0 mm 0 W/m2
03:24 21.6 °C 19.9 °C 1015.8 hPa Calm     90% 0 mm 0 W/m2
03:29 21.6 °C 19.8 °C 1015.8 hPa Calm     90% 0 mm 0 W/m2
03:34 21.5 °C 19.8 °C 1015.8 hPa Calm     90% 0 mm 0 W/m2
03:39 21.4 °C 19.7 °C 1015.8 hPa Calm     90% 0 mm 0 W/m2
03:44 21.4 °C 19.7 °C 1015.8 hPa Calm     90% 0 mm 0 W/m2
03:49 21.4 °C 19.7 °C 1015.8 hPa Calm     90% 0 mm 0 W/m2
03:54 21.4 °C 19.7 °C 1015.8 hPa Calm     90% 0 mm 0 W/m2
03:59 21.4 °C 19.7 °C 1015.8 hPa Calm     90% 0 mm 0 W/m2
04:00 21.4 °C 19.7 °C 1015.8 hPa Calm     90% 0 mm 0 W/m2
04:09 21.4 °C 19.6 °C 1015.8 hPa Calm     89.4% 0 mm 0 W/m2
04:14 21.4 °C 19.7 °C 1015.8 hPa Calm     90% 0 mm 0 W/m2
04:19 21.4 °C 19.7 °C 1015.8 hPa Calm     90% 0 mm 0 W/m2
04:24 21.3 °C 19.6 °C 1015.8 hPa Calm     90% 0 mm 0 W/m2
04:29 21.3 °C 19.6 °C 1015.8 hPa Calm     90% 0 mm 0 W/m2
04:34 21.2 °C 19.5 °C 1015.8 hPa Calm     90% 0 mm 0 W/m2
04:39 21.2 °C 19.4 °C 1015.8 hPa Calm     90% 0 mm 0 W/m2
04:44 21.1 °C 19.4 °C 1015.8 hPa Calm     90% 0 mm 0 W/m2
04:49 21 °C 19.3 °C 1016.1 hPa Calm     90% 0 mm 0 W/m2
04:54 20.9 °C 19.2 °C 1016.1 hPa Calm     90% 0 mm 0 W/m2
04:59 20.8 °C 19.2 °C 1016.1 hPa Calm     90% 0 mm 0 W/m2
05:04 20.8 °C 19.1 °C 1016.1 hPa Calm     90% 0 mm 0 W/m2
05:09 20.7 °C 19.2 °C 1016.1 hPa Calm     91% 0 mm 0 W/m2
05:14 20.7 °C 19.2 °C 1016.1 hPa Calm     91% 0 mm 0 W/m2
05:19 20.6 °C 19.1 °C 1016.1 hPa Calm     91.1% 0 mm 0 W/m2
05:24 20.6 °C 19.1 °C 1016.5 hPa Calm     91.1% 0 mm 0 W/m2
05:29 20.5 °C 19 °C 1016.5 hPa Calm     91.1% 0 mm 0 W/m2
05:34 20.5 °C 19.1 °C 1016.5 hPa Calm     92% 0 mm 0 W/m2
05:39 20.4 °C 19.1 °C 1016.5 hPa Calm     92% 0 mm 0 W/m2
05:44 20.4 °C 19.1 °C 1016.8 hPa Calm     92% 0 mm 0 W/m2
05:49 20.4 °C 19.1 °C 1016.8 hPa Calm     92% 0 mm 0 W/m2
05:54 20.3 °C 19 °C 1016.8 hPa Calm     92% 0 mm 0 W/m2
05:59 20.3 °C 18.9 °C 1016.8 hPa Calm     92% 0 mm 0 W/m2
06:04 20.3 °C 18.9 °C 1016.8 hPa Calm     92% 0 mm 0 W/m2
06:09 20.2 °C 18.9 °C 1017.2 hPa Calm     92% 0 mm 0 W/m2
06:14 20.2 °C 19 °C 1017.2 hPa Calm     92.8% 0 mm 0 W/m2
06:19 20.2 °C 19 °C 1017.2 hPa Calm     93% 0 mm 5 W/m2
06:24 20.2 °C 19 °C 1017.5 hPa Calm     93% 0 mm 7 W/m2
06:29 20.1 °C 18.9 °C 1017.5 hPa Calm     93% 0 mm 9 W/m2
06:34 20.1 °C 18.9 °C 1017.5 hPa Calm     93% 0 mm 11 W/m2
06:39 20.1 °C 18.9 °C 1017.5 hPa Calm     93% 0 mm 14 W/m2
06:44 20.1 °C 18.9 °C 1017.5 hPa Calm     93% 0 mm 16 W/m2
06:49 20.1 °C 18.9 °C 1017.5 hPa Calm     93% 0 mm 19 W/m2
06:54 20.1 °C 18.9 °C 1017.5 hPa Calm     93% 0 mm 37 W/m2
06:59 20.1 °C 19.1 °C 1017.5 hPa Calm     93.5% 0 mm 123 W/m2
07:04 20.3 °C 19.3 °C 1017.5 hPa Calm     94% 0 mm 130 W/m2
07:09 20.6 °C 19.8 °C 1017.5 hPa Calm     95% 0 mm 135 W/m2
07:14 20.9 °C 20.1 °C 1017.5 hPa Calm     94.8% 0 mm 72 W/m2
07:19 21.2 °C 20.2 °C 1017.8 hPa Calm     94% 0 mm 33 W/m2
07:24 21.3 °C 20.3 °C 1017.8 hPa Calm     94% 0 mm 104 W/m2
07:29 21.4 °C 20.3 °C 1017.8 hPa Calm     93.4% 0 mm 139 W/m2
07:34 21.6 °C 20.4 °C 1017.8 hPa Calm     93% 0 mm 192 W/m2
07:39 21.7 °C 20.6 °C 1017.8 hPa Calm     92.9% 0 mm 192 W/m2
07:44 21.9 °C 20.6 °C 1017.8 hPa Calm     92.3% 0 mm 165 W/m2
07:49 22.1 °C 20.6 °C 1017.8 hPa Calm     91.1% 0 mm 144 W/m2
07:54 22.2 °C 20.6 °C 1017.8 hPa Calm     90.5% 0 mm 181 W/m2
07:59 22.3 °C 20.5 °C 1017.8 hPa Calm     89.5% 0 mm 121 W/m2
08:00 22.4 °C 20.5 °C 1017.8 hPa Calm     89% 0 mm 97 W/m2
08:09 22.6 °C 20.7 °C 1018.2 hPa Calm     88.7% 0 mm 302 W/m2
08:14 22.7 °C 20.4 °C 1018.2 hPa Calm     87% 0 mm 320 W/m2
08:19 23.1 °C 20.5 °C 1018.2 hPa Calm     85.4% 0 mm 334 W/m2
08:24 23.5 °C 20.7 °C 1017.8 hPa Calm     84.5% 0 mm 359 W/m2
08:29 24.1 °C 21.1 °C 1017.8 hPa Calm     83.5% 0 mm 378 W/m2
08:34 24.7 °C 21.5 °C 1017.8 hPa Calm     82.3% 0 mm 394 W/m2
08:39 25.2 °C 21.5 °C 1017.8 hPa Calm     79.8% 0 mm 413 W/m2
08:44 25.6 °C 21.4 °C 1017.8 hPa Calm     77.6% 0 mm 425 W/m2
08:49 26 °C 21.8 °C 1017.8 hPa Calm     77.9% 0 mm 445 W/m2
08:54 26.4 °C 21.9 °C 1017.8 hPa Calm     76.3% 0 mm 455 W/m2
08:59 26.7 °C 21.8 °C 1017.8 hPa Calm     74.2% 0 mm 455 W/m2
09:04 27 °C 21.6 °C 1017.8 hPa Calm     72.5% 0 mm 366 W/m2
09:09 27.2 °C 22.1 °C 1017.8 hPa Calm     73.9% 0 mm 374 W/m2
09:14 27.3 °C 22.2 °C 1018.2 hPa Calm     73.7% 0 mm 473 W/m2
09:19 27.5 °C 22.4 °C 1018.2 hPa Calm     73.7% 0 mm 492 W/m2
09:24 27.8 °C 22.2 °C 1018.2 hPa Calm     71.7% 0 mm 519 W/m2
09:29 27.9 °C 22.1 °C 1018.2 hPa Calm     70.6% 0 mm 522 W/m2
09:34 28.1 °C 22.1 °C 1018.2 hPa Calm     69.9% 0 mm 538 W/m2
09:39 28.2 °C 22 °C 1018.2 hPa Calm     69% 0 mm 555 W/m2
09:44 28.4 °C 22.2 °C 1018.2 hPa Calm     69.3% 0 mm 564 W/m2
09:49 28.6 °C 22.3 °C 1018.2 hPa Calm     68.9% 0 mm 575 W/m2
09:54 28.8 °C 22.3 °C 1018.2 hPa Calm     68.1% 0 mm 587 W/m2
09:59 28.9 °C 22.2 °C 1018.2 hPa Calm     67% 0 mm 594 W/m2
10:04 28.9 °C 22.1 °C 1018.2 hPa Calm     66.7% 0 mm 608 W/m2
10:09 29.1 °C 22.5 °C 1018.2 hPa Calm     67.7% 0 mm 617 W/m2
10:14 29.3 °C 22.7 °C 1018.2 hPa Calm     67.8% 0 mm 628 W/m2
10:19 29.3 °C 22.3 °C 1018.2 hPa Calm     66.1% 0 mm 633 W/m2
10:24 29.4 °C 23.1 °C 1018.2 hPa Calm     68.9% 0 mm 643 W/m2
10:29 29.7 °C 23.2 °C 1018.2 hPa Calm     68% 0 mm 664 W/m2
10:34 30 °C 23.3 °C 1018.2 hPa Calm     67.6% 0 mm 668 W/m2
10:39 30.3 °C 23.3 °C 1018.2 hPa Calm     66.5% 0 mm 680 W/m2
10:44 30.3 °C 23.1 °C 1018.5 hPa Calm     65% 0 mm 691 W/m2
10:49 30.3 °C 22.7 °C 1018.5 hPa Calm     63.6% 0 mm 696 W/m2
10:54 30.5 °C 23.2 °C 1018.5 hPa Calm     64.9% 0 mm 700 W/m2
10:59 30.7 °C 23.3 °C 1018.5 hPa Calm     64.8% 0 mm 717 W/m2
11:04 30.9 °C 22.8 °C 1018.5 hPa Calm     62.2% 0 mm 719 W/m2
11:09 30.9 °C 22.7 °C 1018.5 hPa Calm     61.5% 0 mm 729 W/m2
11:14 31.1 °C 23.1 °C 1018.5 hPa Calm     62.2% 0 mm 729 W/m2
11:19 31.3 °C 22.7 °C 1018.5 hPa Calm     60.5% 0 mm 744 W/m2
11:24 31.3 °C 22.6 °C 1018.5 hPa Calm     60.2% 0 mm 749 W/m2
11:29 31.3 °C 22.7 °C 1018.5 hPa Calm     60.2% 0 mm 763 W/m2
11:34 31.4 °C 22.7 °C 1018.2 hPa Calm     60% 0 mm 763 W/m2
11:39 31.5 °C 22.4 °C 1018.2 hPa Calm     58.9% 0 mm 766 W/m2
11:44 31.6 °C 22.4 °C 1018.2 hPa Calm     58.2% 0 mm 770 W/m2
11:49 31.7 °C 23.3 °C 1018.2 hPa Calm     61.1% 0 mm 773 W/m2
11:54 32 °C 23.7 °C 1018.2 hPa Calm     61.6% 0 mm 779 W/m2
11:59 32 °C 22.3 °C 1018.2 hPa Calm     56.5% 0 mm 793 W/m2
12:00 31.9 °C 22.9 °C 1017.8 hPa Calm     59% 0 mm 689 W/m2
12:09 31.8 °C 23.1 °C 1017.8 hPa Calm     59.8% 0 mm 239 W/m2
12:14 31.8 °C 22.7 °C 1017.8 hPa Calm     58.9% 0 mm 406 W/m2
12:19 31.7 °C 22.5 °C 1017.8 hPa Calm     58.2% 0 mm 406 W/m2
12:24 31.6 °C 23 °C 1017.8 hPa Calm     60.4% 0 mm 248 W/m2
12:29 31.4 °C 22.4 °C 1017.8 hPa Calm     58.7% 0 mm 167 W/m2
12:34 31.3 °C 22.8 °C 1017.8 hPa Calm     61% 0 mm 258 W/m2
12:39 31.3 °C 22.6 °C 1017.8 hPa Calm     59.8% 0 mm 824 W/m2
12:44 31.3 °C 22.4 °C 1017.8 hPa Calm     59.1% 0 mm 837 W/m2
12:49 31.5 °C 22.6 °C 1017.8 hPa Calm     59.3% 0 mm 837 W/m2
12:54 31.6 °C 22.5 °C 1017.8 hPa Calm     58.5% 0 mm 844 W/m2
12:59 31.9 °C 23 °C 1017.8 hPa Calm     59.3% 0 mm 853 W/m2
13:04 32.3 °C 22.9 °C 1017.8 hPa Calm     57.8% 0 mm 856 W/m2
13:09 32.6 °C 23 °C 1017.8 hPa Calm     57.1% 0 mm 847 W/m2
13:14 32.7 °C 22.5 °C 1017.8 hPa Calm     55.1% 0 mm 842 W/m2
13:19 32.8 °C 22.3 °C 1017.5 hPa Calm     54.4% 0 mm 837 W/m2
13:24 32.8 °C 22.3 °C 1017.5 hPa Calm     54.2% 0 mm 840 W/m2
13:29 32.8 °C 22.6 °C 1017.5 hPa Calm     55% 0 mm 847 W/m2
13:34 33 °C 22.3 °C 1017.5 hPa Calm     53.7% 0 mm 854 W/m2
13:39 33.1 °C 21.9 °C 1017.5 hPa Calm     51.7% 0 mm 854 W/m2
13:44 33.3 °C 22.1 °C 1017.5 hPa Calm     51.9% 0 mm 851 W/m2
13:49 33.4 °C 22.4 °C 1017.2 hPa Calm     52.6% 0 mm 851 W/m2
13:54 33.6 °C 22.3 °C 1017.2 hPa Calm     51.7% 0 mm 826 W/m2
13:59 33.8 °C 22.2 °C 1017.2 hPa Calm     51% 0 mm 826 W/m2
14:04 33.8 °C 22.1 °C 1017.2 hPa Calm     50.7% 0 mm 824 W/m2
14:09 33.8 °C 21.8 °C 1017.2 hPa Calm     49.9% 0 mm 823 W/m2
14:14 33.8 °C 22 °C 1017.2 hPa Calm     50.3% 0 mm 819 W/m2
14:19 33.7 °C 21.6 °C 1017.2 hPa Calm     49.5% 0 mm 817 W/m2
14:24 33.6 °C 21.4 °C 1017.2 hPa Calm   1.6 km/h 49.1% 0 mm 812 W/m2
14:29 33.4 °C 21 °C 1017.2 hPa Calm   1.6 km/h 48.2% 0 mm 810 W/m2
14:34 33.3 °C 21.1 °C 1017.2 hPa Calm   1.6 km/h 48.7% 0 mm 824 W/m2
14:39 33.3 °C 21.6 °C 1017.2 hPa Calm     50.2% 0 mm 830 W/m2
14:44 33.3 °C 21.6 °C 1017.2 hPa Calm     50.3% 0 mm 803 W/m2
14:49 33.3 °C 21.4 °C 1016.8 hPa Calm     49.7% 0 mm 802 W/m2
14:54 33.5 °C 21.7 °C 1016.8 hPa Calm     50.2% 0 mm 796 W/m2
14:59 33.8 °C 21.4 °C 1016.8 hPa Calm     48.7% 0 mm 780 W/m2
15:04 34 °C 21.1 °C 1016.8 hPa Calm   1.6 km/h 47% 0 mm 751 W/m2
15:09 34.2 °C 20 °C 1016.8 hPa Calm   1.6 km/h 43.4% 0 mm 737 W/m2
15:14 34.3 °C 20.3 °C 1016.8 hPa North 0.2 km/h 3.2 km/h 43.8% 0 mm 722 W/m2
15:19 34.3 °C 20.2 °C 1016.8 hPa Calm   3.2 km/h 43.6% 0 mm 715 W/m2
15:24 34.4 °C 20.2 °C 1016.8 hPa Calm   3.2 km/h 43.5% 0 mm 705 W/m2
15:29 34.5 °C 20.2 °C 1016.8 hPa Calm   3.2 km/h 43.3% 0 mm 691 W/m2
15:34 34.6 °C 20 °C 1016.8 hPa Calm   3.2 km/h 42.6% 0 mm 682 W/m2
15:39 34.7 °C 19.5 °C 1016.5 hPa NNW 0.6 km/h 6.4 km/h 41% 0 mm 656 W/m2
15:44 34.8 °C 16.9 °C 1016.8 hPa NNW 0.3 km/h 6.4 km/h 34.7% 0 mm 640 W/m2
15:49 34.8 °C 15.8 °C 1016.5 hPa Calm   6.4 km/h 32.2% 0 mm 631 W/m2
15:54 34.9 °C 16.2 °C 1016.5 hPa Calm   6.4 km/h 32.8% 0 mm 613 W/m2
15:59 35 °C 16.3 °C 1016.5 hPa Calm   6.4 km/h 33% 0 mm 596 W/m2
16:00 35.1 °C 16.8 °C 1016.5 hPa Calm   6.4 km/h 34% 0 mm 578 W/m2
16:09 34.9 °C 17.2 °C 1016.5 hPa Calm     35.1% 0 mm 473 W/m2
16:14 34.8 °C 18.7 °C 1016.5 hPa Calm     38.9% 0 mm 74 W/m2
16:19 34.6 °C 19.2 °C 1016.5 hPa Calm     40.6% 0 mm 69 W/m2
16:24 34.3 °C 19.2 °C 1016.5 hPa Calm     41.1% 0 mm 67 W/m2
16:29 34.1 °C 18.6 °C 1016.5 hPa Calm     40.1% 0 mm 65 W/m2
16:34 33.8 °C 18.7 °C 1016.5 hPa Calm     40.9% 0 mm 65 W/m2
16:39 33.7 °C 18.1 °C 1016.5 hPa Calm     39.7% 0 mm 63 W/m2
16:44 33.4 °C 18.3 °C 1016.5 hPa Calm     40.9% 0 mm 62 W/m2
16:49 33.3 °C 19.1 °C 1016.5 hPa Calm     43% 0 mm 60 W/m2
16:54 33.2 °C 19.7 °C 1016.5 hPa Calm     45.1% 0 mm 58 W/m2
16:59 33.2 °C 19.8 °C 1016.1 hPa Calm     45.3% 0 mm 54 W/m2
17:04 33.1 °C 19.4 °C 1016.1 hPa Calm     44.4% 0 mm 53 W/m2
17:09 33.1 °C 20.1 °C 1016.1 hPa Calm     46.4% 0 mm 51 W/m2
17:14 33 °C 19.6 °C 1016.1 hPa Calm     45.3% 0 mm 49 W/m2
17:19 32.9 °C 19.8 °C 1016.1 hPa Calm     46% 0 mm 47 W/m2
17:24 32.8 °C 19.2 °C 1016.1 hPa Calm     44.6% 0 mm 47 W/m2
17:29 32.7 °C 19.7 °C 1016.1 hPa Calm     46.1% 0 mm 44 W/m2
17:34 32.7 °C 19.7 °C 1016.1 hPa Calm     46.6% 0 mm 44 W/m2
17:39 32.6 °C 20.2 °C 1016.1 hPa Calm     48.1% 0 mm 42 W/m2
17:44 32.6 °C 19.4 °C 1016.1 hPa Calm     46% 0 mm 40 W/m2
17:49 32.6 °C 20.2 °C 1016.1 hPa Calm     48.1% 0 mm 40 W/m2
17:54 32.6 °C 20.7 °C 1016.1 hPa Calm     49.8% 0 mm 39 W/m2
17:59 32.6 °C 21.4 °C 1016.1 hPa Calm     51.8% 0 mm 37 W/m2
18:04 32.5 °C 21.4 °C 1016.1 hPa Calm     52.1% 0 mm 35 W/m2
18:09 32.4 °C 21.6 °C 1016.1 hPa Calm     53% 0 mm 33 W/m2
18:14 32.4 °C 21.7 °C 1016.1 hPa Calm     53.3% 0 mm 32 W/m2
18:19 32.3 °C 21.9 °C 1016.1 hPa Calm     54.3% 0 mm 28 W/m2
18:24 32.2 °C 21.9 °C 1016.1 hPa Calm     54.7% 0 mm 28 W/m2
18:29 32.1 °C 21.9 °C 1016.1 hPa Calm     55.2% 0 mm 28 W/m2
18:34 31.9 °C 22.2 °C 1015.8 hPa Calm     56.4% 0 mm 26 W/m2
18:39 31.8 °C 22.5 °C 1016.1 hPa Calm     57.7% 0 mm 25 W/m2
18:44 31.7 °C 22.4 °C 1016.1 hPa Calm     58% 0 mm 23 W/m2
18:49 31.6 °C 22.6 °C 1015.8 hPa Calm     59% 0 mm 21 W/m2
18:54 31.4 °C 22.5 °C 1016.1 hPa Calm     59.3% 0 mm 19 W/m2
18:59 31.3 °C 22.6 °C 1016.1 hPa Calm     60% 0 mm 16 W/m2
19:04 31.1 °C 22.5 °C 1016.1 hPa Calm     60.4% 0 mm 14 W/m2
19:09 30.9 °C 22.7 °C 1016.1 hPa Calm     61.5% 0 mm 12 W/m2
19:14 30.7 °C 22.6 °C 1016.1 hPa Calm     62% 0 mm 11 W/m2
19:19 30.5 °C 22.6 °C 1016.1 hPa Calm     62.7% 0 mm 7 W/m2
19:24 30.2 °C 22.7 °C 1016.1 hPa Calm     64.1% 0 mm 5 W/m2
19:29 30 °C 22.6 °C 1016.1 hPa Calm     64.5% 0 mm 0 W/m2
19:34 29.7 °C 22.4 °C 1016.5 hPa Calm     64.7% 0 mm 0 W/m2
19:39 29.6 °C 22.4 °C 1016.5 hPa Calm     65.8% 0 mm 0 W/m2
19:44 29.3 °C 22.4 °C 1016.5 hPa Calm     66.2% 0 mm 0 W/m2
19:49 29.1 °C 22.2 °C 1016.5 hPa Calm     66.4% 0 mm 0 W/m2
19:54 28.9 °C 22.2 °C 1016.5 hPa Calm     66.9% 0 mm 0 W/m2
19:59 28.8 °C 22.3 °C 1016.5 hPa Calm     67.8% 0 mm 0 W/m2
20:00 28.7 °C 22 °C 1016.5 hPa Calm     67% 0 mm 0 W/m2
20:09 28.5 °C 22 °C 1016.8 hPa Calm     68% 0 mm 0 W/m2
20:14 28.3 °C 22 °C 1016.8 hPa Calm     68.5% 0 mm 0 W/m2
20:19 28.2 °C 22.2 °C 1016.8 hPa Calm     69.9% 0 mm 0 W/m2
20:24 28.1 °C 22.4 °C 1016.8 hPa Calm     71.2% 0 mm 0 W/m2
20:29 27.9 °C 22.4 °C 1016.8 hPa Calm     72% 0 mm 0 W/m2
20:34 27.8 °C 22.3 °C 1016.8 hPa Calm     72% 0 mm 0 W/m2
20:39 27.7 °C 22.2 °C 1017.2 hPa Calm     72% 0 mm 0 W/m2
20:44 27.6 °C 22.3 °C 1016.8 hPa Calm     73% 0 mm 0 W/m2
20:49 27.4 °C 22.2 °C 1017.2 hPa Calm     73% 0 mm 0 W/m2
20:54 27.3 °C 22.3 °C 1017.2 hPa Calm     74% 0 mm 0 W/m2
20:59 27.2 °C 22.2 °C 1017.2 hPa Calm     74.2% 0 mm 0 W/m2
21:04 27.1 °C 22.2 °C 1017.2 hPa Calm     74.5% 0 mm 0 W/m2
21:09 26.9 °C 22.1 °C 1017.2 hPa Calm     75% 0 mm 0 W/m2
21:14 26.8 °C 22.1 °C 1017.5 hPa Calm     75.4% 0 mm 0 W/m2
21:19 26.7 °C 22.3 °C 1017.5 hPa Calm     76.6% 0 mm 0 W/m2
21:24 26.6 °C 22.3 °C 1017.5 hPa Calm     77.2% 0 mm 0 W/m2
21:29 26.4 °C 22.3 °C 1017.5 hPa Calm     78% 0 mm 0 W/m2
21:34 26.3 °C 22.3 °C 1017.5 hPa Calm     78.7% 0 mm 0 W/m2
21:39 26.2 °C 22.3 °C 1017.5 hPa Calm     79% 0 mm 0 W/m2
21:44 26.1 °C 22.2 °C 1017.5 hPa Calm     79% 0 mm 0 W/m2
21:49 26 °C 22.1 °C 1017.5 hPa Calm     79% 0 mm 0 W/m2
21:54 25.8 °C 21.9 °C 1017.5 hPa Calm     79% 0 mm 0 W/m2
21:59 25.7 °C 21.9 °C 1017.5 hPa Calm     79.4% 0 mm 0 W/m2
22:04 25.7 °C 21.9 °C 1017.5 hPa Calm     80% 0 mm 0 W/m2
22:09 25.6 °C 21.9 °C 1017.5 hPa Calm     80% 0 mm 0 W/m2
22:14 25.5 °C 22 °C 1017.5 hPa Calm     81% 0 mm 0 W/m2
22:19 25.4 °C 21.9 °C 1017.5 hPa Calm     81% 0 mm 0 W/m2
22:24 25.4 °C 21.9 °C 1017.5 hPa Calm     81% 0 mm 0 W/m2
22:29 25.3 °C 21.8 °C 1017.5 hPa Calm     81% 0 mm 0 W/m2
22:34 25.2 °C 21.7 °C 1017.5 hPa Calm     81% 0 mm 0 W/m2
22:39 25.2 °C 21.8 °C 1017.5 hPa Calm     81.4% 0 mm 0 W/m2
22:44 25.1 °C 21.8 °C 1017.5 hPa Calm     82% 0 mm 0 W/m2
22:49 25 °C 21.7 °C 1017.5 hPa Calm     82% 0 mm 0 W/m2
22:54 24.9 °C 21.7 °C 1017.5 hPa Calm     82% 0 mm 0 W/m2
22:59 24.9 °C 21.6 °C 1017.8 hPa Calm     82% 0 mm 0 W/m2
23:04 24.8 °C 21.6 °C 1017.5 hPa Calm     82.1% 0 mm 0 W/m2
23:09 24.7 °C 21.7 °C 1017.5 hPa Calm     83% 0 mm 0 W/m2
23:14 24.7 °C 21.6 °C 1017.5 hPa Calm     83% 0 mm 0 W/m2
23:19 24.6 °C 21.5 °C 1017.5 hPa Calm     83% 0 mm 0 W/m2
23:24 24.5 °C 21.4 °C 1017.8 hPa Calm     83% 0 mm 0 W/m2
23:29 24.4 °C 21.6 °C 1017.8 hPa Calm     84% 0 mm 0 W/m2
23:34 24.4 °C 21.6 °C 1017.8 hPa Calm     84% 0 mm 0 W/m2
23:39 24.3 °C 21.4 °C 1017.8 hPa Calm     84% 0 mm 0 W/m2
23:44 24.3 °C 21.4 °C 1017.8 hPa Calm     84% 0 mm 0 W/m2
23:49 24.2 °C 21.3 °C 1017.8 hPa Calm     84% 0 mm 0 W/m2
23:54 24.2 °C 21.3 °C 1017.8 hPa Calm     84% 0 mm 0 W/m2
23:59 24.1 °C 21.4 °C 1017.8 hPa Calm     85% 0 mm 0 W/m2
Hartford County Weather
Compliments of Weather Underground - 2 mb